createdAt,value
2023-04-25T00:01:10.443Z,100502.91
2023-04-25T00:03:37.754Z,100504.25
2023-04-25T00:06:04.776Z,100469.38
2023-04-25T00:08:31.992Z,100501.03
2023-04-25T00:11:00.224Z,100501.97
2023-04-25T00:13:27.693Z,100501.66
2023-04-25T00:15:54.597Z,100485.75
2023-04-25T00:18:24.177Z,100512.41
2023-04-25T00:20:51.275Z,100505.47
2023-04-25T00:23:21.416Z,100505.88
2023-04-25T00:25:51.242Z,100495.78
2023-04-25T00:28:18.300Z,100510.16
2023-04-25T00:30:45.451Z,100512.72
2023-04-25T00:33:12.469Z,100508.28
2023-04-25T00:35:39.707Z,100523.59
2023-04-25T00:38:06.518Z,100521.97
2023-04-25T00:40:33.573Z,100526.88
2023-04-25T00:43:00.451Z,100521.13
2023-04-25T00:45:31.214Z,100529.72
2023-04-25T00:47:58.937Z,100522.69
2023-04-25T00:50:26.656Z,100503.78
2023-04-25T00:52:53.782Z,100527.19
2023-04-25T00:55:21.119Z,100535.69
2023-04-25T00:57:48.178Z,100532.84
2023-04-25T01:00:16.040Z,100534.69
2023-04-25T01:02:44.006Z,100538.56
2023-04-25T01:05:11.453Z,100540.75
2023-04-25T01:07:38.498Z,100537.53
2023-04-25T01:10:07.380Z,100542.50
2023-04-25T01:12:34.608Z,100541.53
2023-04-25T01:15:02.503Z,100526.69
2023-04-25T01:17:30.367Z,100531.59
2023-04-25T01:19:57.414Z,100543.41
2023-04-25T01:22:24.577Z,100544.09
2023-04-25T01:24:52.142Z,100539.16
2023-04-25T01:27:19.427Z,100542.88
2023-04-25T01:29:47.152Z,100542.22
2023-04-25T01:32:15.309Z,100551.00
2023-04-25T01:34:42.674Z,100551.13
2023-04-25T01:37:09.469Z,100544.25
2023-04-25T01:39:37.065Z,100547.53
2023-04-25T01:42:04.044Z,100547.19
2023-04-25T01:44:30.998Z,100557.44
2023-04-25T01:46:57.989Z,100545.47
2023-04-25T01:49:26.497Z,100553.59
2023-04-25T01:51:53.624Z,100551.63
2023-04-25T01:54:20.682Z,100554.25
2023-04-25T01:56:52.377Z,100547.81
2023-04-25T01:59:21.086Z,100558.22
2023-04-25T02:01:48.171Z,100556.28
2023-04-25T02:04:15.476Z,100564.22
2023-04-25T02:06:42.513Z,100554.44
2023-04-25T02:09:09.946Z,100563.66
2023-04-25T02:11:36.846Z,100569.44
2023-04-25T02:14:03.880Z,100569.84
2023-04-25T02:16:31.993Z,100567.06
2023-04-25T02:19:00.344Z,100571.88
2023-04-25T02:21:27.759Z,100576.84
2023-04-25T02:23:55.103Z,100580.13
2023-04-25T02:26:22.259Z,100579.50
2023-04-25T02:28:49.434Z,100590.56
2023-04-25T02:31:16.559Z,100588.44
2023-04-25T02:33:43.978Z,100589.81
2023-04-25T02:36:10.833Z,100588.75
2023-04-25T02:38:37.737Z,100586.72
2023-04-25T02:41:04.658Z,100581.41
2023-04-25T02:43:31.987Z,100587.84
2023-04-25T02:45:58.874Z,100590.06
2023-04-25T02:48:26.011Z,100594.72
2023-04-25T02:50:52.969Z,100594.47
2023-04-25T02:53:20.324Z,100592.97
2023-04-25T02:55:47.324Z,100598.44
2023-04-25T02:58:14.277Z,100597.91
2023-04-25T03:00:41.213Z,100584.94
2023-04-25T03:03:11.127Z,100591.81
2023-04-25T03:05:38.098Z,100533.47
2023-04-25T03:08:05.178Z,100591.75
2023-04-25T03:10:32.072Z,100600.78
2023-04-25T03:12:59.165Z,100594.03
2023-04-25T03:15:26.153Z,100595.59
2023-04-25T03:17:56.295Z,100599.53
2023-04-25T03:20:23.229Z,100594.63
2023-04-25T03:22:50.050Z,100603.50
2023-04-25T03:25:17.226Z,100604.97
2023-04-25T03:27:44.035Z,100616.03
2023-04-25T03:30:11.354Z,100611.25
2023-04-25T03:32:38.300Z,100617.97
2023-04-25T03:35:06.670Z,100600.81
2023-04-25T03:37:34.136Z,100620.56
2023-04-25T03:40:00.945Z,100606.50
2023-04-25T03:42:27.922Z,100620.44
2023-04-25T03:44:54.876Z,100618.53
2023-04-25T03:47:24.531Z,100626.78
2023-04-25T03:49:52.994Z,100619.38
2023-04-25T03:52:19.894Z,100622.22
2023-04-25T03:54:47.052Z,100623.22
2023-04-25T03:57:13.978Z,100626.88
2023-04-25T03:59:41.084Z,100629.44
2023-04-25T04:02:08.075Z,100634.44
2023-04-25T04:04:35.068Z,100631.91
2023-04-25T04:07:02.152Z,100628.63
2023-04-25T04:09:29.147Z,100635.03
2023-04-25T04:11:55.980Z,100642.94
2023-04-25T04:14:23.148Z,100624.16
2023-04-25T04:16:53.778Z,100637.69
2023-04-25T04:19:20.594Z,100636.34
2023-04-25T04:21:47.678Z,100642.88
2023-04-25T04:24:14.874Z,100646.66
2023-04-25T04:26:41.837Z,100650.13
2023-04-25T04:29:09.942Z,100648.41
2023-04-25T04:31:37.184Z,100651.56
2023-04-25T04:34:04.760Z,100657.31
2023-04-25T04:36:32.274Z,100654.59
2023-04-25T04:38:59.150Z,100654.59
2023-04-25T04:41:26.371Z,100670.88
2023-04-25T04:43:54.505Z,100686.09
2023-04-25T04:46:21.552Z,100685.84
2023-04-25T04:48:48.823Z,100684.84
2023-04-25T04:51:15.784Z,100694.00
2023-04-25T04:53:42.747Z,100696.38
2023-04-25T04:56:11.060Z,100696.03
2023-04-25T04:58:38.066Z,100693.75
2023-04-25T05:01:05.316Z,100672.94
2023-04-25T05:03:32.468Z,100689.69
2023-04-25T05:05:59.410Z,100693.78
2023-04-25T05:08:26.152Z,100671.94
2023-04-25T05:10:53.244Z,100694.03
2023-04-25T05:13:20.104Z,100693.75
2023-04-25T05:15:47.139Z,100697.25
2023-04-25T05:18:16.818Z,100701.16
2023-04-25T05:20:43.879Z,100697.75
2023-04-25T05:23:10.788Z,100710.41
2023-04-25T05:25:37.933Z,100700.56
2023-04-25T05:28:05.013Z,100698.34
2023-04-25T05:30:32.129Z,100687.16
2023-04-25T05:32:58.963Z,100707.28
2023-04-25T05:35:26.188Z,100714.19
2023-04-25T05:37:53.110Z,100710.56
2023-04-25T05:40:19.999Z,100713.63
2023-04-25T05:42:47.362Z,100712.31
2023-04-25T05:45:14.608Z,100711.97
2023-04-25T05:47:41.897Z,100708.50
2023-04-25T05:50:09.886Z,100710.22
2023-04-25T05:52:36.891Z,100717.50
2023-04-25T05:55:04.122Z,100711.34
2023-04-25T05:57:31.154Z,100716.50
2023-04-25T05:59:58.223Z,100729.53
2023-04-25T06:02:25.311Z,100723.66
2023-04-25T06:04:52.966Z,100711.69
2023-04-25T06:07:21.453Z,100733.47
2023-04-25T06:09:49.600Z,100734.53
2023-04-25T06:12:16.608Z,100746.59
2023-04-25T06:14:43.853Z,100741.97
2023-04-25T06:17:10.782Z,100728.41
2023-04-25T06:19:37.906Z,100734.22
2023-04-25T06:22:04.804Z,100744.94
2023-04-25T06:24:31.750Z,100733.25
2023-04-25T06:26:58.618Z,100745.41
2023-04-25T06:29:30.405Z,100749.47
2023-04-25T06:31:58.293Z,100747.88
2023-04-25T06:34:25.415Z,100751.81
2023-04-25T06:36:52.317Z,100754.72
2023-04-25T06:39:21.370Z,100756.88
2023-04-25T06:41:48.741Z,100747.53
2023-04-25T06:44:19.622Z,100757.94
2023-04-25T06:46:46.546Z,100755.53
2023-04-25T06:49:16.214Z,100746.63
2023-04-25T06:51:43.663Z,100680.63
2023-04-25T06:54:11.035Z,100763.13
2023-04-25T06:56:38.213Z,100763.94
2023-04-25T06:59:05.235Z,100765.91
2023-04-25T07:01:32.122Z,100777.00
2023-04-25T07:03:59.414Z,100777.84
2023-04-25T07:06:28.316Z,100781.91
2023-04-25T07:08:55.978Z,100771.91
2023-04-25T07:11:22.994Z,100777.31
2023-04-25T07:13:49.941Z,100777.13
2023-04-25T07:16:17.947Z,100780.53
2023-04-25T07:18:44.902Z,100775.19
2023-04-25T07:21:11.743Z,100772.25
2023-04-25T07:23:41.841Z,100769.50
2023-04-25T07:26:09.240Z,100768.56
2023-04-25T07:28:36.473Z,100769.09
2023-04-25T07:31:04.094Z,100774.91
2023-04-25T07:33:31.086Z,100779.03
2023-04-25T07:36:01.080Z,100776.31
2023-04-25T07:38:27.970Z,100776.06
2023-04-25T07:40:54.944Z,100779.63
2023-04-25T07:43:21.999Z,100773.69
2023-04-25T07:45:49.535Z,100787.97
2023-04-25T07:48:20.181Z,100782.72
2023-04-25T07:50:46.900Z,100787.09
2023-04-25T07:53:14.338Z,100788.00
2023-04-25T07:55:41.676Z,100781.53
2023-04-25T07:58:09.490Z,100800.69
2023-04-25T08:00:37.126Z,100778.69
2023-04-25T08:03:04.300Z,100783.78
2023-04-25T08:05:31.379Z,100789.53
2023-04-25T08:07:58.452Z,100799.47
2023-04-25T08:10:25.392Z,100809.13
2023-04-25T08:12:52.363Z,100807.50
2023-04-25T08:15:19.487Z,100801.44
2023-04-25T08:17:46.870Z,100823.09
2023-04-25T08:20:16.523Z,100809.63
2023-04-25T08:22:44.130Z,100799.88
2023-04-25T08:25:10.978Z,100805.94
2023-04-25T08:27:38.022Z,100821.41
2023-04-25T08:30:05.437Z,100831.44
2023-04-25T08:32:32.331Z,100822.66
2023-04-25T08:34:59.149Z,100816.13
2023-04-25T08:37:26.956Z,100818.44
2023-04-25T08:39:54.522Z,100830.88
2023-04-25T08:43:05.410Z,100835.91
2023-04-25T08:45:34.031Z,100854.97
2023-04-25T08:48:02.589Z,100865.50
2023-04-25T08:50:32.902Z,100864.81
2023-04-25T08:53:05.516Z,100874.00
2023-04-25T08:55:33.135Z,100883.78
2023-04-25T08:58:02.185Z,100869.97
2023-04-25T09:00:29.337Z,100869.72
2023-04-25T09:02:58.833Z,100835.00
2023-04-25T09:05:30.060Z,100881.84
2023-04-25T09:07:57.743Z,100868.66
2023-04-25T09:10:24.788Z,100868.84
2023-04-25T09:13:10.336Z,100889.06
2023-04-25T09:15:52.789Z,100927.06
2023-04-25T09:18:37.072Z,100926.88
2023-04-25T09:21:14.305Z,100934.28
2023-04-25T09:23:45.987Z,100928.34
2023-04-25T09:26:18.185Z,100933.47
2023-04-25T09:28:45.256Z,100930.88
2023-04-25T09:31:14.864Z,100930.63
2023-04-25T09:33:42.514Z,100928.59
2023-04-25T09:36:14.526Z,100937.50
2023-04-25T09:38:46.632Z,100929.19
2023-04-25T09:41:14.345Z,100922.56
2023-04-25T09:43:41.189Z,100937.88
2023-04-25T09:46:15.053Z,100940.22
2023-04-25T09:48:49.095Z,100953.75
2023-04-25T09:51:16.137Z,100936.19
2023-04-25T09:53:45.551Z,100948.41
2023-04-25T09:56:14.381Z,100943.09
2023-04-25T09:58:42.418Z,100950.06
2023-04-25T10:01:12.399Z,100949.94
2023-04-25T10:03:43.972Z,100950.47
2023-04-25T10:06:20.722Z,100932.97
2023-04-25T10:08:51.275Z,100921.19
2023-04-25T10:11:19.032Z,100910.41
2023-04-25T10:13:47.516Z,100906.91
2023-04-25T10:16:14.906Z,100900.38
2023-04-25T10:18:46.920Z,100915.28
2023-04-25T10:21:15.612Z,100910.13
2023-04-25T10:23:43.439Z,100932.75
2023-04-25T10:26:14.717Z,100916.34
2023-04-25T10:29:00.628Z,100918.63
2023-04-25T10:31:27.901Z,100929.31
2023-04-25T10:33:55.144Z,100961.16
2023-04-25T10:36:23.976Z,100973.25
2023-04-25T10:38:52.455Z,100970.19
2023-04-25T10:41:21.705Z,100942.50
2023-04-25T10:43:50.393Z,100946.53
2023-04-25T10:46:27.636Z,100945.50
2023-04-25T10:48:59.406Z,100923.56
2023-04-25T10:51:50.894Z,100951.22
2023-04-25T10:54:21.438Z,100943.13
2023-04-25T10:56:52.953Z,100943.00
2023-04-25T10:59:21.760Z,100944.50
2023-04-25T11:01:56.179Z,100955.13
2023-04-25T11:04:25.510Z,100938.34
2023-04-25T11:07:11.305Z,100954.69
2023-04-25T11:09:42.151Z,100980.88
2023-04-25T11:12:10.954Z,100989.94
2023-04-25T11:17:08.135Z,100994.91
2023-04-25T11:19:35.236Z,100986.44
2023-04-25T11:22:04.345Z,100964.13
2023-04-25T11:24:33.297Z,100959.16
2023-04-25T11:27:01.056Z,100947.25
2023-04-25T11:29:31.399Z,100960.31
2023-04-25T11:32:02.509Z,100975.97
2023-04-25T11:34:32.066Z,100964.75
2023-04-25T11:36:59.152Z,100963.38
2023-04-25T11:39:27.380Z,100964.66
2023-04-25T11:41:55.203Z,100967.00
2023-04-25T11:44:23.082Z,100956.53
2023-04-25T11:46:50.531Z,100966.25
2023-04-25T11:49:19.713Z,100975.59
2023-04-25T11:51:49.782Z,100995.78
2023-04-25T11:54:17.343Z,100980.31
2023-04-25T11:56:46.446Z,101009.00
2023-04-25T11:59:14.559Z,101016.72
2023-04-25T12:01:50.820Z,101021.38
2023-04-25T12:04:26.819Z,101032.75
2023-04-25T12:06:56.564Z,101019.69
2023-04-25T12:09:35.300Z,101024.09
2023-04-25T12:12:07.081Z,101026.03
2023-04-25T12:14:37.079Z,101019.72
2023-04-25T12:17:11.488Z,101017.94
2023-04-25T12:19:42.012Z,101033.97
2023-04-25T12:22:45.996Z,101035.13
2023-04-25T12:25:14.381Z,101042.97
2023-04-25T12:27:45.434Z,101057.16
2023-04-25T12:30:15.397Z,101057.25
2023-04-25T12:32:45.084Z,101075.31
2023-04-25T12:35:12.527Z,101073.69
2023-04-25T12:37:39.676Z,101057.03
2023-04-25T12:40:07.826Z,101075.63
2023-04-25T12:42:34.670Z,101089.94
2023-04-25T12:45:01.758Z,101084.44
2023-04-25T12:47:31.832Z,101073.19
2023-04-25T12:49:59.856Z,101109.59
2023-04-25T12:52:27.174Z,101135.00
2023-04-25T12:54:59.619Z,101136.06
2023-04-25T12:57:29.825Z,101142.34
2023-04-25T12:59:56.919Z,101138.19
2023-04-25T13:02:23.887Z,101136.22
2023-04-25T13:04:55.155Z,101131.31
2023-04-25T13:07:22.153Z,101125.34
2023-04-25T13:09:49.063Z,101099.97
2023-04-25T13:12:16.826Z,101119.38
2023-04-25T13:14:43.833Z,101116.50
2023-04-25T13:17:11.589Z,101099.50
2023-04-25T13:19:40.066Z,101118.56
2023-04-25T13:22:07.568Z,101124.47
2023-04-25T13:24:37.342Z,101124.56
2023-04-25T13:27:04.617Z,101154.97
2023-04-25T13:29:31.481Z,101181.47
2023-04-25T13:31:58.672Z,101174.44
2023-04-25T13:34:26.296Z,101149.59
2023-04-25T13:36:53.623Z,101153.84
2023-04-25T13:39:21.185Z,101156.66
2023-04-25T13:41:48.492Z,101143.97
2023-04-25T13:44:16.130Z,101148.69
2023-04-25T13:46:47.063Z,101139.84
2023-04-25T13:49:14.611Z,101143.56
2023-04-25T13:51:45.186Z,101140.88
2023-04-25T13:54:14.187Z,101129.97
2023-04-25T13:56:43.561Z,101133.94
2023-04-25T13:59:10.834Z,101136.25
2023-04-25T14:01:37.948Z,101133.00
2023-04-25T14:04:06.640Z,101130.59
2023-04-25T14:06:34.216Z,101136.22
2023-04-25T14:09:02.422Z,101145.59
2023-04-25T14:11:29.610Z,101142.34
2023-04-25T14:13:56.556Z,101144.47
2023-04-25T14:16:24.599Z,101149.72
2023-04-25T14:18:51.751Z,101144.25
2023-04-25T14:21:18.833Z,101144.53
2023-04-25T14:23:46.638Z,101137.38
2023-04-25T14:26:14.121Z,101133.97
2023-04-25T14:28:41.322Z,101136.25
2023-04-25T14:31:08.997Z,101136.13
2023-04-25T14:33:36.639Z,101148.78
2023-04-25T14:36:03.872Z,101144.03
2023-04-25T14:38:30.871Z,101157.41
2023-04-25T14:41:01.146Z,101151.41
2023-04-25T14:43:28.036Z,101169.41
2023-04-25T14:45:56.862Z,101177.19
2023-04-25T14:48:25.453Z,101163.09
2023-04-25T14:50:52.650Z,101166.81
2023-04-25T14:53:25.342Z,101167.75
2023-04-25T14:55:52.275Z,101167.09
2023-04-25T14:58:19.602Z,101159.72
2023-04-25T15:00:47.222Z,101166.63
2023-04-25T15:03:18.057Z,101172.88
2023-04-25T15:05:45.634Z,101160.88
2023-04-25T15:08:12.490Z,101166.84
2023-04-25T15:10:39.484Z,101172.97
2023-04-25T15:13:06.774Z,101173.94
2023-04-25T15:15:34.057Z,101169.81
2023-04-25T15:18:01.547Z,101152.94
2023-04-25T15:20:28.921Z,101181.47
2023-04-25T15:22:56.462Z,101168.31
2023-04-25T15:25:23.588Z,101178.03
2023-04-25T15:27:53.989Z,101190.56
2023-04-25T15:30:21.258Z,101145.50
2023-04-25T15:32:48.770Z,101187.84
2023-04-25T15:35:16.622Z,101177.09
2023-04-25T15:37:43.939Z,101177.72
2023-04-25T15:40:17.775Z,101183.19
2023-04-25T15:42:54.057Z,101200.28
2023-04-25T15:45:26.007Z,101196.03
2023-04-25T15:47:55.496Z,101207.19
2023-04-25T15:50:23.050Z,101212.75
2023-04-25T15:52:51.649Z,101204.56
2023-04-25T15:55:26.930Z,101197.78
2023-04-25T15:57:54.452Z,101214.06
2023-04-25T16:00:22.645Z,101209.63
2023-04-25T16:02:50.066Z,101215.81
2023-04-25T16:05:20.835Z,101194.03
2023-04-25T16:07:48.736Z,101214.44
2023-04-25T16:10:21.777Z,101220.75
2023-04-25T16:12:50.716Z,101214.78
2023-04-25T16:15:17.971Z,101219.81
2023-04-25T16:17:46.208Z,101219.63
2023-04-25T16:20:14.026Z,101209.31
2023-04-25T16:22:42.445Z,101222.50
2023-04-25T16:25:13.400Z,101223.34
2023-04-25T16:27:40.688Z,101215.38
2023-04-25T16:30:10.255Z,101219.09
2023-04-25T16:32:39.210Z,101215.22
2023-04-25T16:35:06.722Z,101211.53
2023-04-25T16:37:33.987Z,101216.97
2023-04-25T16:40:01.326Z,101224.25
2023-04-25T16:42:28.414Z,101227.75
2023-04-25T16:44:55.260Z,101234.88
2023-04-25T16:47:22.305Z,101232.53
2023-04-25T16:49:49.509Z,101251.03
2023-04-25T16:52:16.912Z,101256.44
2023-04-25T16:54:43.841Z,101269.91
2023-04-25T16:57:11.820Z,101263.06
2023-04-25T16:59:39.463Z,101255.25
2023-04-25T17:02:10.949Z,101254.84
2023-04-25T17:04:38.178Z,101253.47
2023-04-25T17:07:05.742Z,101258.28
2023-04-25T17:09:35.555Z,101242.50
2023-04-25T17:12:03.997Z,101259.00
2023-04-25T17:14:32.528Z,101256.88
2023-04-25T17:16:59.306Z,101265.97
2023-04-25T17:19:26.346Z,101264.19
2023-04-25T17:21:53.446Z,101255.78
2023-04-25T17:24:22.348Z,101264.88
2023-04-25T17:26:49.472Z,101258.09
2023-04-25T17:29:16.385Z,101266.00
2023-04-25T17:31:44.416Z,101274.97
2023-04-25T17:34:16.728Z,101262.72
2023-04-25T17:36:48.038Z,101276.28
2023-04-25T17:39:17.735Z,101274.56
2023-04-25T17:41:45.032Z,101277.66
2023-04-25T17:44:12.274Z,101267.63
2023-04-25T17:46:39.310Z,101283.44
2023-04-25T17:49:06.383Z,101275.41
2023-04-25T17:51:33.468Z,101278.19
2023-04-25T17:54:00.486Z,101279.34
2023-04-25T17:56:27.880Z,101287.72
2023-04-25T17:58:55.201Z,101292.19
2023-04-25T18:01:23.027Z,101269.13
2023-04-25T18:03:53.115Z,101268.88
2023-04-25T18:06:20.015Z,101296.72
2023-04-25T18:08:47.505Z,101294.81
2023-04-25T18:11:17.286Z,101298.41
2023-04-25T18:13:44.372Z,101306.75
2023-04-25T18:16:12.061Z,101304.03
2023-04-25T18:18:39.662Z,101308.19
2023-04-25T18:21:09.780Z,101305.22
2023-04-25T18:23:37.986Z,101304.63
2023-04-25T18:26:05.812Z,101317.38
2023-04-25T18:28:34.564Z,101319.00
2023-04-25T18:31:01.568Z,101322.56
2023-04-25T18:33:28.410Z,101317.53
2023-04-25T18:35:59.144Z,101329.41
2023-04-25T18:41:06.207Z,101327.88
2023-04-25T18:43:37.450Z,101336.19
2023-04-25T18:46:04.885Z,101335.06
2023-04-25T18:48:32.052Z,101335.63
2023-04-25T18:50:59.092Z,101278.16
2023-04-25T18:53:26.056Z,101274.84
2023-04-25T18:55:53.521Z,101346.13
2023-04-25T18:58:20.535Z,101355.44
2023-04-25T19:00:48.770Z,101359.56
2023-04-25T19:03:15.910Z,101358.78
2023-04-25T19:05:43.105Z,101352.09
2023-04-25T19:08:09.991Z,101358.47
2023-04-25T19:10:37.713Z,101367.81
2023-04-25T19:13:05.121Z,101368.91
2023-04-25T19:15:33.556Z,101334.06
2023-04-25T19:18:01.315Z,101367.88
2023-04-25T19:20:28.502Z,101378.00
2023-04-25T19:22:55.634Z,101369.72
2023-04-25T19:25:26.501Z,101367.25
2023-04-25T19:27:53.551Z,101356.22
2023-04-25T19:30:20.862Z,101378.06
2023-04-25T19:32:47.909Z,101378.53
2023-04-25T19:35:15.233Z,101384.63
2023-04-25T19:37:46.796Z,101393.13
2023-04-25T19:40:16.108Z,101387.56
2023-04-25T19:42:44.105Z,101396.94
2023-04-25T19:45:11.896Z,101394.69
2023-04-25T19:47:42.658Z,101398.88
2023-04-25T19:50:10.917Z,101384.19
2023-04-25T19:52:39.044Z,101389.97
2023-04-25T19:55:06.823Z,101373.56
2023-04-25T19:57:34.617Z,101367.00
2023-04-25T20:00:06.344Z,101394.69
2023-04-25T20:02:33.436Z,101406.25
2023-04-25T20:05:00.608Z,101406.97
2023-04-25T20:07:27.581Z,101409.22
2023-04-25T20:09:57.868Z,101407.56
2023-04-25T20:12:24.924Z,101402.00
2023-04-25T20:14:51.993Z,101405.31
2023-04-25T20:17:21.650Z,101406.63
2023-04-25T20:19:48.646Z,101406.09
2023-04-25T20:22:15.445Z,101409.34
2023-04-25T20:24:42.579Z,101405.31
2023-04-25T20:27:09.504Z,101405.75
2023-04-25T20:29:37.265Z,101398.59
2023-04-25T20:32:04.522Z,101414.63
2023-04-25T20:34:31.826Z,101418.19
2023-04-25T20:36:59.418Z,101389.94
2023-04-25T20:39:27.110Z,101381.41
2023-04-25T20:41:54.949Z,101415.13
2023-04-25T20:44:23.627Z,101413.53
2023-04-25T20:46:50.824Z,101417.22
2023-04-25T20:49:17.813Z,101425.91
2023-04-25T20:51:44.812Z,101422.31
2023-04-25T20:54:13.477Z,101415.94
2023-04-25T20:56:40.535Z,101412.88
2023-04-25T20:59:09.790Z,101420.81
2023-04-25T21:01:36.990Z,101425.44
2023-04-25T21:04:06.557Z,101421.81
2023-04-25T21:06:34.886Z,101427.88
2023-04-25T21:09:01.955Z,101424.28
2023-04-25T21:11:28.796Z,101421.97
2023-04-25T21:13:55.899Z,101420.63
2023-04-25T21:16:22.970Z,101423.69
2023-04-25T21:18:50.285Z,101422.84
2023-04-25T21:21:17.667Z,101425.63
2023-04-25T21:23:44.598Z,101435.47
2023-04-25T21:26:11.761Z,101442.50
2023-04-25T21:28:38.797Z,101431.47
2023-04-25T21:31:05.871Z,101418.84
2023-04-25T21:33:32.779Z,101430.72
2023-04-25T21:35:59.652Z,101416.13
2023-04-25T21:38:27.013Z,101447.47
2023-04-25T21:40:54.008Z,101441.94
2023-04-25T21:43:21.833Z,101459.28
2023-04-25T21:46:11.478Z,101437.72
2023-04-25T21:48:35.620Z,101441.72
2023-04-25T21:51:02.568Z,101435.25
2023-04-25T21:53:29.645Z,101436.09
2023-04-25T21:55:59.364Z,101437.06
2023-04-25T21:58:26.260Z,101422.63
2023-04-25T22:00:53.300Z,101427.06
2023-04-25T22:03:20.740Z,101429.22
2023-04-25T22:05:50.198Z,101424.38
2023-04-25T22:08:17.573Z,101429.66
2023-04-25T22:10:44.577Z,101425.66
2023-04-25T22:13:11.622Z,101429.09
2023-04-25T22:15:41.066Z,101431.34
2023-04-25T22:18:08.294Z,101436.16
2023-04-25T22:20:35.485Z,101438.50
2023-04-25T22:23:02.344Z,101413.00
2023-04-25T22:25:30.062Z,101451.09
2023-04-25T22:28:00.314Z,101453.28
2023-04-25T22:30:30.994Z,101435.69
2023-04-25T22:32:58.208Z,101432.78
2023-04-25T22:35:25.090Z,101428.03
2023-04-25T22:37:51.893Z,101442.28
2023-04-25T22:40:19.199Z,101435.81
2023-04-25T22:42:46.324Z,101445.41
2023-04-25T22:45:13.605Z,101451.13
2023-04-25T22:47:40.501Z,101453.38
2023-04-25T22:50:12.729Z,101449.31
2023-04-25T22:52:39.802Z,101461.09
2023-04-25T22:55:07.610Z,101466.00
2023-04-25T22:57:38.764Z,101459.50
2023-04-25T23:00:11.924Z,101472.56
2023-04-25T23:02:38.958Z,101468.91
2023-04-25T23:05:07.358Z,101476.09
2023-04-25T23:07:34.459Z,101467.78
2023-04-25T23:10:01.486Z,101466.41
2023-04-25T23:12:28.485Z,101473.16
2023-04-25T23:14:55.363Z,101472.47
2023-04-25T23:17:23.357Z,101472.00
2023-04-25T23:19:50.260Z,101474.25
2023-04-25T23:22:17.626Z,101465.78
2023-04-25T23:24:45.057Z,101471.00
2023-04-25T23:27:12.129Z,101469.28
2023-04-25T23:29:40.844Z,101474.06
2023-04-25T23:32:09.096Z,101467.28
2023-04-25T23:34:37.913Z,101475.06
2023-04-25T23:37:04.923Z,101467.28
2023-04-25T23:39:31.848Z,101474.31
2023-04-25T23:41:58.774Z,101474.19
2023-04-25T23:44:26.134Z,101482.31
2023-04-25T23:46:53.121Z,101477.22
2023-04-25T23:49:20.108Z,101482.47
2023-04-25T23:51:49.907Z,101475.28
2023-04-25T23:54:16.745Z,101491.44
2023-04-25T23:56:43.761Z,101486.47
2023-04-25T23:59:10.838Z,101474.63
